M I D A S
Marine Information and Data Acquisition System
Tripno 1204 of the Zeeleeuw from 2007-01-23 05:40:40 to 2007-01-23 19:03:12
Back to CruiseResearch ActivitiesStationsMapUnderway DataData graphs

EquipmentUnitsComment
TimeDGPSUTC
LatitudeDGPSDM.mWGS84
LongitudeDGPSDM.mWGS84
HeadingGyrodeg 
SOGDGPSknotsSpeed over ground
COGDGPSdegCourse over ground
DepthEcho soundermeters200 kHz
Missing or incorrect values are displayed as -999
Navigation data collected by the RV Zeeleeuw from 2007-01-23 05:41:37 to 2007-01-23 19:14:58
                                                                                    Next 1000 lines
Time Latitude Longitude Heading SOG COG Depth
2007-01-23 05:41:47 51°13.599 2°56.092 114 0.4 294 -999
2007-01-23 05:41:52 51°13.599 2°56.091 113.9 0.5 297 8.2
2007-01-23 05:41:57 51°13.599 2°56.09 113.9 0.6 294 8.2
2007-01-23 05:42:02 51°13.6 2°56.088 113.9 0.7 297 8.2
2007-01-23 05:42:07 51°13.6 2°56.086 114.1 0.9 295 8.3
2007-01-23 05:42:12 51°13.601 2°56.084 114.5 1 297 8.4
2007-01-23 05:42:16 51°13.602 2°56.083 114.7 1.1 296 8.5
2007-01-23 05:42:21 51°13.602 2°56.08 115 1.2 297 8.7
2007-01-23 05:42:27 51°13.603 2°56.077 115.3 1.3 296 8.8
2007-01-23 05:42:32 51°13.604 2°56.075 115.4 1.3 296 4.8
2007-01-23 05:42:37 51°13.605 2°56.072 115.6 1.4 297 4.8
2007-01-23 05:42:42 51°13.605 2°56.069 115.8 1.5 295 4.6
2007-01-23 05:42:47 51°13.606 2°56.065 115.9 1.7 296 4.7
2007-01-23 05:42:52 51°13.608 2°56.061 116.1 1.9 294 4.6
2007-01-23 05:42:57 51°13.609 2°56.057 116.2 2.1 295 4.9
2007-01-23 05:43:02 51°13.61 2°56.052 116.4 2.4 294 4.7
2007-01-23 05:43:07 51°13.612 2°56.047 116.8 2.6 295 -999
2007-01-23 05:43:12 51°13.613 2°56.042 117.3 2.8 294 -999
2007-01-23 05:43:17 51°13.615 2°56.036 117.9 3 294 -999
2007-01-23 05:43:22 51°13.617 2°56.029 118.4 3.1 295 -999
2007-01-23 05:43:27 51°13.619 2°56.023 119 3.3 295 -999
2007-01-23 05:43:32 51°13.62 2°56.016 119.7 3.4 295 -999
2007-01-23 05:43:37 51°13.623 2°56.008 120.4 3.6 296 -999
2007-01-23 05:43:42 51°13.625 2°56.001 121.2 3.7 296 -999
2007-01-23 05:43:47 51°13.627 2°55.993 122 3.9 297 -999
2007-01-23 05:43:52 51°13.629 2°55.986 123.1 4 298 -999
2007-01-23 05:43:57 51°13.632 2°55.978 124 4.1 298 -999
2007-01-23 05:44:02 51°13.635 2°55.97 124.7 4.2 299 -999
2007-01-23 05:44:07 51°13.638 2°55.962 125.3 4.2 300 -999
2007-01-23 05:44:12 51°13.641 2°55.953 126 4.3 301 -999
2007-01-23 05:44:17 51°13.644 2°55.945 126.7 4.4 302 -999
2007-01-23 05:44:22 51°13.648 2°55.937 127.4 4.4 302 -999
2007-01-23 05:44:27 51°13.651 2°55.929 127.8 4.4 303 -999
2007-01-23 05:44:32 51°13.654 2°55.921 128.3 4.4 304 -999
2007-01-23 05:44:37 51°13.658 2°55.913 128.5 4.2 304 -999
2007-01-23 05:44:42 51°13.661 2°55.906 128.9 4.2 304 -999
2007-01-23 05:44:47 51°13.664 2°55.898 129.1 4.1 304 10.5
2007-01-23 05:44:52 51°13.667 2°55.891 129.1 4.1 304 4.8
2007-01-23 05:44:57 51°13.671 2°55.883 129.1 4.1 305 -999
2007-01-23 05:45:02 51°13.674 2°55.876 129.1 4.2 305 4.5
2007-01-23 05:45:07 51°13.677 2°55.868 129.1 4.2 305 -999
2007-01-23 05:45:12 51°13.68 2°55.86 129.1 4.2 305 -999
2007-01-23 05:45:17 51°13.684 2°55.853 128.9 4.2 306 -999
2007-01-23 05:45:22 51°13.687 2°55.846 128.6 4 305 -999
2007-01-23 05:45:27 51°13.69 2°55.839 128.2 4 305 -999
2007-01-23 05:45:32 51°13.693 2°55.832 127.4 3.9 304 4.8
2007-01-23 05:45:37 51°13.696 2°55.825 126.7 3.8 304 -999
2007-01-23 05:45:42 51°13.699 2°55.818 125.9 3.7 303 4.7
2007-01-23 05:45:47 51°13.702 2°55.811 125 3.6 303 4.8
2007-01-23 05:45:52 51°13.704 2°55.804 124.4 3.5 301 4.6
2007-01-23 05:45:57 51°13.707 2°55.798 123.3 3.5 301 4.7
2007-01-23 05:46:02 51°13.709 2°55.791 122 3.4 300 4.8
2007-01-23 05:46:07 51°13.711 2°55.785 120.8 3.3 299 12.7
2007-01-23 05:46:12 51°13.713 2°55.778 119.6 3.3 298 13.2
2007-01-23 05:46:16 51°13.715 2°55.773 118.3 3.2 297 4.6
2007-01-23 05:46:22 51°13.717 2°55.766 116.9 3.1 296 4.8
2007-01-23 05:46:27 51°13.719 2°55.76 115.6 3.1 295 4.9
2007-01-23 05:46:32 51°13.721 2°55.754 114.4 2.9 294 13
2007-01-23 05:46:36 51°13.722 2°55.749 113.1 2.8 292 12.9
2007-01-23 05:46:42 51°13.724 2°55.742 111.9 2.7 292 12.8
2007-01-23 05:46:47 51°13.725 2°55.737 110.9 2.7 291 12.6
2007-01-23 05:46:52 51°13.726 2°55.731 110.1 2.6 290 12.4
2007-01-23 05:46:57 51°13.727 2°55.726 109.3 2.5 289 12.1
2007-01-23 05:47:01 51°13.728 2°55.722 108.5 2.3 289 12
2007-01-23 05:47:07 51°13.729 2°55.717 107.7 2.1 289 11.9
2007-01-23 05:47:12 51°13.73 2°55.713 106.6 1.8 288 12
2007-01-23 05:47:17 51°13.731 2°55.71 105.5 1.7 289 11.9
2007-01-23 05:47:22 51°13.731 2°55.707 104.1 1.4 289 11.8
2007-01-23 05:47:26 51°13.731 2°55.705 102.4 1 292 11.9
2007-01-23 05:47:32 51°13.732 2°55.704 100.6 0.7 299 11.9
2007-01-23 05:47:37 51°13.733 2°55.703 98.2 0.4 327 11.9
2007-01-23 05:47:42 51°13.733 2°55.703 95 0.4 16 11.8
2007-01-23 05:47:46 51°13.734 2°55.704 91.1 0.6 39 11.8
2007-01-23 05:47:52 51°13.735 2°55.705 86.7 0.8 50 11.9
2007-01-23 05:47:57 51°13.736 2°55.707 81.9 1.1 51 12
2007-01-23 05:48:02 51°13.737 2°55.709 76.6 1.2 54 12
2007-01-23 05:48:06 51°13.737 2°55.711 71.2 1.3 45 11.6
2007-01-23 05:48:12 51°13.739 2°55.713 65.9 1.2 47 11.8
2007-01-23 05:48:17 51°13.74 2°55.714 62.2 1.1 39 11.5
2007-01-23 05:48:22 51°13.741 2°55.716 59.3 0.9 37 11.6
2007-01-23 05:48:27 51°13.742 2°55.716 56.8 0.8 30 11.5
2007-01-23 05:48:32 51°13.743 2°55.717 54.1 0.6 26 11.1
2007-01-23 05:48:36 51°13.743 2°55.717 51.5 0.5 9 10.7
2007-01-23 05:48:42 51°13.744 2°55.717 49.2 0.3 -999 10.7
2007-01-23 05:48:47 51°13.744 2°55.717 47.2 0.3 323 10.7
2007-01-23 05:48:52 51°13.744 2°55.716 45.7 0.2 277 10.7
2007-01-23 05:48:57 51°13.744 2°55.715 44.5 0.4 255 10.7
2007-01-23 05:49:02 51°13.743 2°55.713 43.6 0.6 244 10.7
2007-01-23 05:49:07 51°13.743 2°55.712 42.8 0.8 239 11.1
2007-01-23 05:49:12 51°13.742 2°55.71 42 0.9 232 11.5
2007-01-23 05:49:17 51°13.741 2°55.708 41.5 1 236 11.5
2007-01-23 05:49:22 51°13.74 2°55.707 41.1 1 232 -999
2007-01-23 05:49:27 51°13.74 2°55.705 40.7 1 235 4.9
2007-01-23 05:49:32 51°13.739 2°55.703 40.6 0.9 234 4.9
2007-01-23 05:49:37 51°13.738 2°55.701 40.6 0.9 236 -999
2007-01-23 05:49:42 51°13.737 2°55.7 40.5 0.9 237 -999
2007-01-23 05:49:47 51°13.737 2°55.698 40.1 0.8 243 12.1
2007-01-23 05:49:52 51°13.736 2°55.698 39.7 0.6 249 -999
2007-01-23 05:49:57 51°13.736 2°55.697 39 0.5 264 4.6
2007-01-23 05:50:02 51°13.736 2°55.696 37.8 0.3 302 4.8
2007-01-23 05:50:06 51°13.737 2°55.696 36.2 0.5 333 5
2007-01-23 05:50:12 51°13.738 2°55.695 33.4 0.6 353 12.1
2007-01-23 05:50:17 51°13.739 2°55.695 29.8 0.9 357 12.1
2007-01-23 05:50:22 51°13.74 2°55.695 26 1.1 359 12
2007-01-23 05:50:27 51°13.742 2°55.695 21.9 1.2 358 12
2007-01-23 05:50:32 51°13.744 2°55.695 17.5 1.4 357 12
2007-01-23 05:50:37 51°13.746 2°55.695 13 1.5 353 11.9
2007-01-23 05:50:42 51°13.748 2°55.694 8.5 1.6 351 11.9
2007-01-23 05:50:47 51°13.75 2°55.694 3.9 1.7 347 11.8
2007-01-23 05:50:52 51°13.753 2°55.692 359.4 1.7 344 11.4
2007-01-23 05:50:56 51°13.755 2°55.692 355.2 1.7 342 11.5
2007-01-23 05:51:02 51°13.757 2°55.69 351.7 1.8 341 11.5
2007-01-23 05:51:07 51°13.76 2°55.689 349 1.8 339 11.5
2007-01-23 05:51:12 51°13.762 2°55.688 346.6 1.8 338 11.5
2007-01-23 05:51:17 51°13.764 2°55.686 344.9 2.1 337 11.5
2007-01-23 05:51:21 51°13.767 2°55.684 343.8 2.2 335 11.5
2007-01-23 05:51:27 51°13.77 2°55.682 343 2.3 336 11.4
2007-01-23 05:51:32 51°13.773 2°55.679 342.5 2.5 335 11.5
2007-01-23 05:51:37 51°13.777 2°55.676 341.8 2.9 335 11.6
2007-01-23 05:51:42 51°13.781 2°55.673 341.1 3.3 335 11.5
2007-01-23 05:51:47 51°13.786 2°55.67 340.5 3.7 335 11.5
2007-01-23 05:51:52 51°13.791 2°55.666 340.3 4 335 11.4
2007-01-23 05:51:57 51°13.796 2°55.662 340 4.3 335 11.6
2007-01-23 05:52:02 51°13.802 2°55.658 340 4.6 335 11.6
2007-01-23 05:52:06 51°13.807 2°55.655 340 4.8 336 11.7
2007-01-23 05:52:12 51°13.815 2°55.649 340.1 5.1 336 11.7
2007-01-23 05:52:17 51°13.821 2°55.644 340.1 5.3 336 11.7
2007-01-23 05:52:22 51°13.828 2°55.639 340.2 5.5 336 11.8
2007-01-23 05:52:26 51°13.834 2°55.635 340.4 5.7 336 11.6
2007-01-23 05:52:32 51°13.843 2°55.629 340.4 5.9 336 11.6
2007-01-23 05:52:37 51°13.851 2°55.623 340.4 6 336 11.6
2007-01-23 05:52:42 51°13.858 2°55.617 340.6 4.8 336 11.7
2007-01-23 05:52:46 51°13.865 2°55.613 340.8 6.2 337 11.8
2007-01-23 05:52:52 51°13.875 2°55.606 341.2 6.4 336 11.6
2007-01-23 05:52:56 51°13.881 2°55.601 341.5 6.5 336 11.6
2007-01-23 05:53:02 51°13.891 2°55.594 341.1 6.6 336 11.7
2007-01-23 05:53:07 51°13.9 2°55.588 341.1 6.7 336 11.7
2007-01-23 05:53:12 51°13.908 2°55.582 341.4 6.7 336 11.7
2007-01-23 05:53:16 51°13.915 2°55.577 341.8 6.8 336 11.7
2007-01-23 05:53:22 51°13.926 2°55.57 341.6 6.9 336 11.7
2007-01-23 05:53:27 51°13.934 2°55.563 341.1 6.9 335 11.7
2007-01-23 05:53:32 51°13.943 2°55.558 341.1 6.9 337 11.6
2007-01-23 05:53:37 51°13.952 2°55.551 341.5 7 336 11.6
2007-01-23 05:53:41 51°13.959 2°55.546 341.6 7 336 11.6
2007-01-23 05:53:47 51°13.969 2°55.539 341.1 7 336 11.6
2007-01-23 05:53:52 51°13.978 2°55.532 340.5 7 335 11.6
2007-01-23 05:53:57 51°13.987 2°55.526 340.4 7 336 11.6
2007-01-23 05:54:02 51°13.996 2°55.519 340.4 7.1 335 11.6
2007-01-23 05:54:07 51°14.005 2°55.513 340.4 7.1 335 11.6
2007-01-23 05:54:12 51°14.014 2°55.506 340.4 7.1 335 11.6
2007-01-23 05:54:17 51°14.023 2°55.5 340.4 7.1 335 11.6
2007-01-23 05:54:21 51°14.03 2°55.494 340.5 7.1 335 11.7
2007-01-23 05:54:26 51°14.039 2°55.488 340.7 7.1 336 11.6
2007-01-23 05:54:32 51°14.05 2°55.48 340.9 7.1 335 11.6
2007-01-23 05:54:37 51°14.059 2°55.473 340.6 7.1 335 11.6
2007-01-23 05:54:42 51°14.068 2°55.467 340.4 7.1 335 11.6
2007-01-23 05:54:46 51°14.075 2°55.461 340.4 7.2 335 11.5
2007-01-23 05:54:52 51°14.085 2°55.453 340.2 7.1 334 11.6
2007-01-23 05:54:57 51°14.094 2°55.446 339.6 7.2 334 11.6
2007-01-23 05:55:02 51°14.103 2°55.439 339.2 7.2 333 11.5
2007-01-23 05:55:07 51°14.112 2°55.432 338.8 7.3 333 11.5
2007-01-23 05:55:12 51°14.121 2°55.424 338.4 7.2 332 11.5
2007-01-23 05:55:17 51°14.13 2°55.416 337.4 7.2 331 11.5
2007-01-23 05:55:22 51°14.139 2°55.408 336.5 7.3 330 11.5
2007-01-23 05:55:27 51°14.147 2°55.4 335.3 7.3 329 11.5
2007-01-23 05:55:32 51°14.155 2°55.391 333.8 7.3 327 11.5
2007-01-23 05:55:37 51°14.164 2°55.382 332.7 7.3 327 11.5
2007-01-23 05:55:42 51°14.172 2°55.373 331.9 7.3 326 11.5
2007-01-23 05:55:47 51°14.181 2°55.364 330.9 7.4 325 11.5
2007-01-23 05:55:52 51°14.189 2°55.354 330 7.4 324 11.5
2007-01-23 05:55:57 51°14.197 2°55.345 329.2 7.3 323 11.5
2007-01-23 05:56:01 51°14.204 2°55.337 328.4 7.3 322 11.5
2007-01-23 05:56:07 51°14.213 2°55.325 327.4 7.3 321 11.5
2007-01-23 05:56:12 51°14.221 2°55.314 326.2 7.4 320 11.5
2007-01-23 05:56:17 51°14.229 2°55.303 325.1 7.4 318 11.5
2007-01-23 05:56:21 51°14.235 2°55.294 324.1 7.4 317 11.5
2007-01-23 05:56:27 51°14.244 2°55.281 322.6 7.4 317 11.5
2007-01-23 05:56:32 51°14.251 2°55.269 321.5 7.4 315 11.5
2007-01-23 05:56:37 51°14.258 2°55.258 320.5 7.4 315 11.5
2007-01-23 05:56:42 51°14.265 2°55.246 319.7 7.4 313 11.2
2007-01-23 05:56:46 51°14.271 2°55.236 319 7.4 313 10.9
2007-01-23 05:56:52 51°14.279 2°55.221 318.1 7.6 312 10.8
2007-01-23 05:56:57 51°14.286 2°55.208 317.2 7.9 311 10.7
2007-01-23 05:57:02 51°14.293 2°55.194 316.5 8.1 310 10.6
2007-01-23 05:57:07 51°14.301 2°55.18 315.9 8.4 310 10.8
2007-01-23 05:57:12 51°14.308 2°55.166 315.9 8.5 311 11
2007-01-23 05:57:17 51°14.316 2°55.151 316.6 8.8 311 11.5
2007-01-23 05:57:22 51°14.325 2°55.136 317.3 9 311 11.5
2007-01-23 05:57:26 51°14.331 2°55.124 317.3 9.2 311 11.4
2007-01-23 05:57:32 51°14.342 2°55.105 317.4 9.4 311 11.5
2007-01-23 05:57:37 51°14.35 2°55.09 317.5 9.5 312 11.3
2007-01-23 05:57:42 51°14.359 2°55.074 317.7 9.6 313 11.3
2007-01-23 05:57:47 51°14.369 2°55.059 318.2 9.7 313 11.1
2007-01-23 05:57:52 51°14.378 2°55.042 318.9 9.8 312 11
2007-01-23 05:57:56 51°14.385 2°55.029 318.7 10 312 11.2
2007-01-23 05:58:02 51°14.397 2°55.01 318.5 10.2 313 11.1
2007-01-23 05:58:07 51°14.406 2°54.993 319 10.3 314 11.2
2007-01-23 05:58:12 51°14.416 2°54.977 319.8 10.3 315 11.1
2007-01-23 05:58:17 51°14.427 2°54.962 320.7 10.4 318 11.3
2007-01-23 05:58:22 51°14.438 2°54.948 323.4 10.3 322 11.1
2007-01-23 05:58:27 51°14.45 2°54.935 327.3 10.3 326 11.2
2007-01-23 05:58:32 51°14.462 2°54.923 331.1 10.2 328 11.3
2007-01-23 05:58:37 51°14.474 2°54.912 334 10.2 329 11
2007-01-23 05:58:42 51°14.486 2°54.9 336 10.3 330 10.8
2007-01-23 05:58:47 51°14.499 2°54.89 337.1 10.2 331 10.3
2007-01-23 05:58:52 51°14.511 2°54.879 337.6 10.2 333 10.5
2007-01-23 05:58:57 51°14.524 2°54.87 338.7 10.1 334 10.4
2007-01-23 05:59:02 51°14.537 2°54.86 339.8 10.1 336 10.5
2007-01-23 05:59:07 51°14.55 2°54.851 341.2 10.2 336 10.4
2007-01-23 05:59:12 51°14.563 2°54.843 342.5 10.3 338 10.3
2007-01-23 05:59:17 51°14.576 2°54.835 343.8 10.3 340 10.3
2007-01-23 05:59:22 51°14.59 2°54.827 344.9 10.2 340 10.2
2007-01-23 05:59:26 51°14.601 2°54.821 346.2 10.3 341 10.4
2007-01-23 05:59:32 51°14.617 2°54.813 346.8 10.3 342 10.2
2007-01-23 05:59:37 51°14.631 2°54.805 347.4 10.3 342 10.2
2007-01-23 05:59:42 51°14.644 2°54.799 347.8 10.3 343 10.1
2007-01-23 05:59:47 51°14.658 2°54.792 348.1 10.3 343 10.1
2007-01-23 05:59:52 51°14.672 2°54.785 348.4 10.6 343 10.3
2007-01-23 05:59:57 51°14.686 2°54.778 348.4 10.8 344 10.1
2007-01-23 06:00:02 51°14.701 2°54.771 348.6 11.1 343 10.1
2007-01-23 06:00:07 51°14.716 2°54.764 348.9 11.3 344 10
2007-01-23 06:00:12 51°14.732 2°54.758 348.8 11.5 346 10.1
2007-01-23 06:00:17 51°14.747 2°54.752 349.8 11.6 346 10
2007-01-23 06:00:22 51°14.763 2°54.747 350.8 11.6 348 10.2
2007-01-23 06:00:27 51°14.779 2°54.74 351.2 11.8 347 10.2
2007-01-23 06:00:32 51°14.795 2°54.735 351.7 11.7 348 9.6
2007-01-23 06:00:37 51°14.811 2°54.73 351.9 11.7 347 9.8
2007-01-23 06:00:42 51°14.826 2°54.724 352.4 11.7 347 9.8
2007-01-23 06:00:47 51°14.842 2°54.717 352.1 11.8 345 10.1
2007-01-23 06:00:52 51°14.858 2°54.71 350.4 11.9 344 10
2007-01-23 06:00:57 51°14.874 2°54.702 349.2 11.9 343 9.9
2007-01-23 06:01:02 51°14.889 2°54.694 347.7 11.9 342 9.8
2007-01-23 06:01:07 51°14.905 2°54.686 346.5 12 342 9.6
2007-01-23 06:01:12 51°14.921 2°54.679 346.5 12 344 10
2007-01-23 06:01:17 51°14.937 2°54.672 347.4 12.1 345 9.8
2007-01-23 06:01:22 51°14.954 2°54.665 348.4 12.2 345 9.7
2007-01-23 06:01:26 51°14.966 2°54.66 349.1 12.1 346 9.7
2007-01-23 06:01:32 51°14.986 2°54.653 350.1 12.1 347 9.9
2007-01-23 06:01:37 51°15.002 2°54.646 351.2 12.1 346 9.8
2007-01-23 06:01:42 51°15.019 2°54.64 351.6 12.1 347 9.5
2007-01-23 06:01:46 51°15.032 2°54.635 351.7 12.1 346 9.3
2007-01-23 06:01:52 51°15.051 2°54.628 352 11.9 346 8.9
2007-01-23 06:01:57 51°15.067 2°54.621 351.7 12 346 9
2007-01-23 06:02:02 51°15.083 2°54.614 350.9 11.9 344 9
2007-01-23 06:02:07 51°15.099 2°54.607 349.8 11.9 344 8.9
2007-01-23 06:02:12 51°15.114 2°54.599 349.1 11.9 344 9
2007-01-23 06:02:17 51°15.131 2°54.592 348.9 12 344 8.9
2007-01-23 06:02:22 51°15.147 2°54.585 348.9 12 345 9
2007-01-23 06:02:27 51°15.163 2°54.578 349.4 12.1 346 9.1
2007-01-23 06:02:32 51°15.179 2°54.572 350.3 12 347 9.1
2007-01-23 06:02:37 51°15.195 2°54.566 351.2 12.1 348 9.3
2007-01-23 06:02:42 51°15.212 2°54.561 352.3 12.1 349 9.3
2007-01-23 06:02:47 51°15.228 2°54.556 353.7 12.1 350 9.2
2007-01-23 06:02:52 51°15.245 2°54.552 354.9 12.2 350 9.3
2007-01-23 06:02:57 51°15.261 2°54.547 355.1 12.1 350 9.4
2007-01-23 06:03:02 51°15.278 2°54.541 355.2 12.1 348 9.6
2007-01-23 06:03:07 51°15.294 2°54.535 354.9 12.1 347 9.5
2007-01-23 06:03:12 51°15.311 2°54.528 353.5 12.1 345 9.4
2007-01-23 06:03:17 51°15.326 2°54.519 351.4 12.1 341 9.6
2007-01-23 06:03:22 51°15.342 2°54.51 348.2 12.1 339 9.5
2007-01-23 06:03:26 51°15.355 2°54.502 345.4 12.2 338 9.6
2007-01-23 06:03:32 51°15.373 2°54.49 344 12.2 338 9.7
2007-01-23 06:03:37 51°15.389 2°54.48 343.6 12.3 339 9.8
2007-01-23 06:03:42 51°15.405 2°54.472 344.5 12 341 9.6
2007-01-23 06:03:46 51°15.417 2°54.465 346.2 11.7 342 10
2007-01-23 06:03:52 51°15.436 2°54.455 347.5 11.8 341 10
2007-01-23 06:03:57 51°15.451 2°54.447 347.5 11.8 341 9.9
2007-01-23 06:04:02 51°15.467 2°54.438 347 11.9 341 10
2007-01-23 06:04:07 51°15.483 2°54.429 346.9 11.9 341 9.9
2007-01-23 06:04:12 51°15.499 2°54.422 347.2 12 343 9.9
2007-01-23 06:04:17 51°15.515 2°54.415 348.2 12 345 10.2
2007-01-23 06:04:22 51°15.531 2°54.408 350.3 11.9 346 10.3
2007-01-23 06:04:27 51°15.547 2°54.402 351.6 12 347 10.5
2007-01-23 06:04:32 51°15.563 2°54.396 352.6 12 348 10.5
2007-01-23 06:04:37 51°15.58 2°54.39 353.4 12 348 10.5
2007-01-23 06:04:42 51°15.596 2°54.385 354.1 12.1 348 10.3
2007-01-23 06:04:47 51°15.612 2°54.379 354.1 12.1 348 10.2
2007-01-23 06:04:52 51°15.628 2°54.374 354.1 11.9 348 10.1
2007-01-23 06:04:57 51°15.644 2°54.369 354.3 11.8 348 10.4
2007-01-23 06:05:02 51°15.66 2°54.363 354.4 11.8 348 10.7
2007-01-23 06:05:07 51°15.676 2°54.358 354.5 11.8 348 10.9
2007-01-23 06:05:12 51°15.692 2°54.353 354.2 11.9 348 11
2007-01-23 06:05:17 51°15.709 2°54.348 354.2 11.9 349 10.6
2007-01-23 06:05:22 51°15.725 2°54.343 354.7 11.9 349 10.9
2007-01-23 06:05:27 51°15.741 2°54.338 355.1 11.9 351 11
2007-01-23 06:05:32 51°15.758 2°54.334 356.3 11.9 351 11
2007-01-23 06:05:37 51°15.774 2°54.33 357 12 352 11.1
2007-01-23 06:05:41 51°15.788 2°54.328 357.8 12.2 353 11
2007-01-23 06:05:47 51°15.808 2°54.325 358.9 12.1 354 10.9
2007-01-23 06:05:52 51°15.825 2°54.322 359.5 12.1 355 11.1
2007-01-23 06:05:57 51°15.841 2°54.32 0.6 12.1 355 11.2
2007-01-23 06:06:02 51°15.858 2°54.318 1.1 12.1 356 11.2
2007-01-23 06:06:06 51°15.871 2°54.317 1.9 12.1 357 11.3
2007-01-23 06:06:12 51°15.892 2°54.315 2.5 12.1 357 11.3
2007-01-23 06:06:17 51°15.909 2°54.314 3.2 12.3 358 11.3
2007-01-23 06:06:22 51°15.926 2°54.314 3.8 12.2 359 11.2
2007-01-23 06:06:27 51°15.943 2°54.314 4.3 12.3 -999 11.4
2007-01-23 06:06:32 51°15.959 2°54.314 5.2 12.1 -999 11.3
2007-01-23 06:06:37 51°15.976 2°54.315 6 12 1 11.6
2007-01-23 06:06:42 51°15.992 2°54.315 6.6 11.3 1 11.3
2007-01-23 06:06:47 51°16.007 2°54.315 6.6 10.8 1 11.5
2007-01-23 06:06:52 51°16.02 2°54.316 6.5 9.9 1 11.3
2007-01-23 06:06:57 51°16.033 2°54.317 6.5 9.2 3 11.3
2007-01-23 06:07:02 51°16.045 2°54.317 7.3 8.7 2 11.4
2007-01-23 06:07:07 51°16.056 2°54.318 7.9 8.1 2 11.6
2007-01-23 06:07:12 51°16.067 2°54.32 8.4 7.7 4 11.7
2007-01-23 06:07:17 51°16.077 2°54.32 9.1 7.4 3 11.8
2007-01-23 06:07:21 51°16.085 2°54.322 9.9 7 5 11.8
2007-01-23 06:07:27 51°16.096 2°54.323 10.6 6.8 4 11.8
2007-01-23 06:07:32 51°16.105 2°54.325 10.8 6.5 7 11.8
2007-01-23 06:07:37 51°16.114 2°54.326 11.4 6.3 6 11.9
2007-01-23 06:07:41 51°16.121 2°54.328 12.9 6 9 11.8
2007-01-23 06:07:47 51°16.13 2°54.33 14.6 5.7 10 12
2007-01-23 06:07:52 51°16.137 2°54.333 16.8 5.5 14 11.9
2007-01-23 06:07:57 51°16.144 2°54.336 19.2 5.4 13 11.8
2007-01-23 06:08:02 51°16.151 2°54.339 21 5.2 17 11.8
2007-01-23 06:08:06 51°16.156 2°54.342 22.5 4.9 17 11.8
2007-01-23 06:08:12 51°16.164 2°54.345 23.9 4.7 18 12
2007-01-23 06:08:17 51°16.17 2°54.348 25.4 4.5 15 11.9
2007-01-23 06:08:22 51°16.176 2°54.352 25.9 4.5 20 11.8
2007-01-23 06:08:27 51°16.182 2°54.354 25.9 4.3 16 11.7
2007-01-23 06:08:32 51°16.187 2°54.357 26.1 4.1 19 11.8
2007-01-23 06:08:37 51°16.192 2°54.359 24.7 3.9 12 12
2007-01-23 06:08:42 51°16.197 2°54.361 22.5 3.8 11 12.1
2007-01-23 06:08:47 51°16.203 2°54.363 19.8 3.8 13 11.8
2007-01-23 06:08:52 51°16.208 2°54.363 16 3.6 4 11.8
2007-01-23 06:08:57 51°16.212 2°54.363 13.1 3.4 3 11.9
2007-01-23 06:09:02 51°16.217 2°54.363 9.3 3.4 -999 11.9
2007-01-23 06:09:07 51°16.221 2°54.363 5.9 3.2 358 11.8
2007-01-23 06:09:12 51°16.225 2°54.362 1.8 3 352 11.9
2007-01-23 06:09:17 51°16.229 2°54.361 358 3 353 11.9
2007-01-23 06:09:22 51°16.233 2°54.359 354.4 2.9 344 12
2007-01-23 06:09:27 51°16.237 2°54.358 351.1 2.8 349 11.9
2007-01-23 06:09:32 51°16.24 2°54.355 347.6 2.8 339 12
2007-01-23 06:09:37 51°16.244 2°54.354 345.3 2.7 341 11.9
2007-01-23 06:09:41 51°16.247 2°54.351 341.3 2.6 335 11.9
2007-01-23 06:09:47 51°16.25 2°54.349 338 2.5 336 11.9
2007-01-23 06:09:52 51°16.253 2°54.346 335.1 2.6 329 12
2007-01-23 06:09:57 51°16.256 2°54.342 332.4 2.6 327 11.9
2007-01-23 06:10:01 51°16.259 2°54.34 327.5 2.6 322 12
2007-01-23 06:10:06 51°16.262 2°54.336 324 2.7 321 11.8
2007-01-23 06:10:12 51°16.264 2°54.331 318.8 2.7 311 11.8
2007-01-23 06:10:17 51°16.267 2°54.326 314.3 2.7 310 11.9
2007-01-23 06:10:22 51°16.269 2°54.321 309.9 2.7 306 11.8
2007-01-23 06:10:26 51°16.271 2°54.317 303.7 2.6 301 11.8
2007-01-23 06:10:32 51°16.273 2°54.311 298.9 2.7 296 11.9
2007-01-23 06:10:37 51°16.274 2°54.306 293.6 2.6 292 11.9
2007-01-23 06:10:42 51°16.275 2°54.3 288.4 2.6 290 11.8
2007-01-23 06:10:47 51°16.276 2°54.295 284.6 2.4 280 11.8
2007-01-23 06:10:52 51°16.277 2°54.29 279.4 2.3 281 11.8
2007-01-23 06:10:57 51°16.277 2°54.286 274.9 2.1 285 11.9
2007-01-23 06:11:02 51°16.278 2°54.282 272.7 1.8 279 11.8
2007-01-23 06:11:07 51°16.278 2°54.278 270.7 1.6 287 11.8
2007-01-23 06:11:12 51°16.278 2°54.276 269.9 1.2 270 11.9
2007-01-23 06:11:17 51°16.279 2°54.274 269.1 1.2 306 11.9
2007-01-23 06:11:22 51°16.279 2°54.272 268.1 0.7 279 11.9
2007-01-23 06:11:27 51°16.279 2°54.27 268.2 0.7 287 11.8
2007-01-23 06:11:32 51°16.28 2°54.269 266.5 0.7 298 11.8
2007-01-23 06:11:37 51°16.28 2°54.268 265 0.5 277 11.9
2007-01-23 06:11:42 51°16.281 2°54.267 264.6 0.7 302 11.9
2007-01-23 06:11:47 51°16.28 2°54.266 263.3 0.4 246 11.9
2007-01-23 06:11:52 51°16.281 2°54.264 262 0.6 303 12.1
2007-01-23 06:11:57 51°16.281 2°54.263 260.7 0.6 307 12
2007-01-23 06:12:02 51°16.281 2°54.263 258.5 0.3 266 11.7
2007-01-23 06:12:07 51°16.282 2°54.261 257.3 0.7 320 11.8
2007-01-23 06:12:12 51°16.281 2°54.261 255.9 0.2 193 11.8
2007-01-23 06:12:17 51°16.283 2°54.261 255 0.8 336 11.9
2007-01-23 06:12:22 51°16.282 2°54.261 253.8 0.4 132 11.8
2007-01-23 06:12:27 51°16.283 2°54.261 252.5 0.7 355 11.9
2007-01-23 06:12:32 51°16.283 2°54.262 251.3 0.4 107 11.9
2007-01-23 06:12:37 51°16.284 2°54.262 250.6 0.6 15 11.9
2007-01-23 06:12:42 51°16.284 2°54.263 249.5 0.5 63 11.9
2007-01-23 06:12:47 51°16.285 2°54.264 248.7 0.7 29 11.7
2007-01-23 06:12:52 51°16.285 2°54.265 247.6 0.6 73 11.8
2007-01-23 06:12:57 51°16.286 2°54.266 245.9 0.9 22 11.7
2007-01-23 06:13:02 51°16.287 2°54.268 245 0.8 62 11.8
2007-01-23 06:13:07 51°16.288 2°54.269 243.1 1 21 11.7
2007-01-23 06:13:12 51°16.288 2°54.271 242.2 0.9 73 11.8
2007-01-23 06:13:17 51°16.29 2°54.271 240.9 1 24 11.8
2007-01-23 06:13:22 51°16.29 2°54.273 239.8 0.9 44 11.9
2007-01-23 06:13:27 51°16.291 2°54.274 239 0.8 32 12
2007-01-23 06:13:32 51°16.293 2°54.275 237.5 0.8 39 12
2007-01-23 06:13:37 51°16.293 2°54.275 236.9 0.7 22 11.9
2007-01-23 06:13:42 51°16.294 2°54.276 236.3 0.8 14 11.9
2007-01-23 06:13:47 51°16.295 2°54.277 236.2 0.7 26 11.8
2007-01-23 06:13:52 51°16.296 2°54.277 234.4 0.6 53 11.7
2007-01-23 06:13:57 51°16.297 2°54.277 234.5 1 354 11.8
2007-01-23 06:14:02 51°16.298 2°54.278 234.6 0.6 64 11.7
2007-01-23 06:14:07 51°16.299 2°54.278 233.6 1 352 11.8
2007-01-23 06:14:12 51°16.3 2°54.279 233.6 0.7 36 11.7
2007-01-23 06:14:17 51°16.301 2°54.28 232.9 0.7 24 11.8
2007-01-23 06:14:21 51°16.302 2°54.28 233.5 0.9 8 11.9
2007-01-23 06:14:27 51°16.303 2°54.281 234.2 0.9 8 11.8
2007-01-23 06:14:32 51°16.304 2°54.282 233.9 0.8 40 11.7
2007-01-23 06:14:37 51°16.305 2°54.282 233.9 1 6 11.7
2007-01-23 06:14:42 51°16.306 2°54.283 233.5 0.8 30 11.8
2007-01-23 06:14:46 51°16.307 2°54.284 233.9 1 11 11.8
2007-01-23 06:14:52 51°16.308 2°54.285 233.6 0.7 48 11.9
2007-01-23 06:14:57 51°16.31 2°54.284 233.5 1 1 12
2007-01-23 06:15:02 51°16.311 2°54.285 233.9 0.7 32 11.9
2007-01-23 06:15:07 51°16.312 2°54.285 233.3 0.9 3 11.9
2007-01-23 06:15:12 51°16.312 2°54.287 233.6 0.6 41 11.8
2007-01-23 06:15:17 51°16.314 2°54.286 233.1 0.9 357 11.9
2007-01-23 06:15:22 51°16.314 2°54.287 232.9 0.6 18 11.9
2007-01-23 06:15:26 51°16.315 2°54.286 232.9 0.8 356 11.9
2007-01-23 06:15:32 51°16.316 2°54.287 233.2 0.4 31 11.8
2007-01-23 06:15:37 51°16.317 2°54.287 232.5 0.9 346 11.9
2007-01-23 06:15:42 51°16.317 2°54.287 232.8 0.4 27 11.8
2007-01-23 06:15:47 51°16.319 2°54.287 232.2 0.6 352 11.8
2007-01-23 06:15:52 51°16.319 2°54.287 231.9 0.5 345 11.8
2007-01-23 06:15:57 51°16.32 2°54.287 231.4 0.4 342 11.8
2007-01-23 06:16:02 51°16.32 2°54.286 230.5 0.4 336 11.7
2007-01-23 06:16:07 51°16.32 2°54.286 229.9 0.2 341 11.7
2007-01-23 06:16:12 51°16.321 2°54.286 228.9 0.3 333 11.8
2007-01-23 06:16:17 51°16.321 2°54.285 227.9 0.3 323 11.9
2007-01-23 06:16:21 51°16.321 2°54.285 226.4 0.1 323 11.8
2007-01-23 06:16:27 51°16.321 2°54.284 225 0.4 309 11.9
2007-01-23 06:16:32 51°16.321 2°54.284 223.3 -999 256 11.9
2007-01-23 06:16:37 51°16.322 2°54.283 221.6 0.4 293 11.9
2007-01-23 06:16:42 51°16.322 2°54.283 220.1 0.2 267 11.8
2007-01-23 06:16:47 51°16.322 2°54.282 218.3 0.4 292 11.8
2007-01-23 06:16:52 51°16.322 2°54.281 216.9 0.2 265 11.9
2007-01-23 06:16:57 51°16.322 2°54.28 215 0.5 278 11.9
2007-01-23 06:17:02 51°16.322 2°54.28 213.7 0.2 260 11.8
2007-01-23 06:17:07 51°16.322 2°54.279 211.9 0.4 268 11.8
2007-01-23 06:17:12 51°16.322 2°54.278 210.5 0.3 263 11.9
2007-01-23 06:17:17 51°16.322 2°54.277 209.6 0.4 262 11.8
2007-01-23 06:17:22 51°16.322 2°54.276 208 0.4 265 11.8
2007-01-23 06:17:26 51°16.321 2°54.276 207 0.4 261 11.7
2007-01-23 06:17:32 51°16.321 2°54.275 205.9 0.3 252 11.9
2007-01-23 06:17:37 51°16.321 2°54.273 204.7 0.6 262 11.8
2007-01-23 06:17:42 51°16.321 2°54.273 203.9 0.3 254 11.7
2007-01-23 06:17:47 51°16.321 2°54.272 202.9 0.4 253 11.7
2007-01-23 06:17:52 51°16.32 2°54.271 201.5 0.5 259 11.8
2007-01-23 06:17:57 51°16.32 2°54.27 201.3 0.4 245 11.8
2007-01-23 06:18:02 51°16.32 2°54.269 200.3 0.6 262 11.8
2007-01-23 06:18:07 51°16.32 2°54.268 199.7 0.3 222 11.7
2007-01-23 06:18:12 51°16.32 2°54.267 198.8 0.5 254 11.8
2007-01-23 06:18:17 51°16.319 2°54.266 198.8 0.5 234 11.8
2007-01-23 06:18:22 51°16.319 2°54.265 198 0.6 247 11.8
2007-01-23 06:18:27 51°16.318 2°54.265 197.6 0.4 223 11.7
2007-01-23 06:18:32 51°16.318 2°54.263 196.5 0.6 253 11.8
2007-01-23 06:18:37 51°16.318 2°54.263 195.9 0.5 235 11.8
2007-01-23 06:18:42 51°16.318 2°54.261 194.9 0.5 247 11.7
2007-01-23 06:18:47 51°16.317 2°54.261 193.8 0.4 225 11.8
2007-01-23 06:18:52 51°16.317 2°54.26 193.1 0.5 233 11.8
2007-01-23 06:18:57 51°16.316 2°54.259 192.1 0.3 210 11.9
2007-01-23 06:19:02 51°16.316 2°54.258 191.1 0.7 239 11.7
2007-01-23 06:19:07 51°16.316 2°54.258 190.3 0.4 195 11.7
2007-01-23 06:19:12 51°16.315 2°54.256 189.4 0.6 246 11.7
2007-01-23 06:19:17 51°16.315 2°54.256 188.5 0.4 209 11.7
2007-01-23 06:19:22 51°16.314 2°54.255 187.8 0.5 238 11.7
2007-01-23 06:19:27 51°16.314 2°54.254 187.2 0.3 229 11.8
2007-01-23 06:19:32 51°16.314 2°54.253 186.7 0.6 235 11.8
2007-01-23 06:19:37 51°16.313 2°54.253 185.7 0.2 210 11.9
2007-01-23 06:19:42 51°16.313 2°54.252 185 0.7 239 11.7
2007-01-23 06:19:46 51°16.312 2°54.252 183.6 0.2 190 11.7
2007-01-23 06:19:52 51°16.312 2°54.251 182.9 0.5 236 11.8
2007-01-23 06:19:57 51°16.312 2°54.251 182.1 0.3 219 11.7
2007-01-23 06:20:02 51°16.311 2°54.25 181.2 0.4 223 11.7
2007-01-23 06:20:07 51°16.311 2°54.25 180.3 0.4 215 11.7
2007-01-23 06:20:12 51°16.31 2°54.25 179.3 0.3 189 11.6
2007-01-23 06:20:17 51°16.31 2°54.249 178.2 0.4 223 11.8
2007-01-23 06:20:22 51°16.31 2°54.249 177.3 0.3 182 11.7
2007-01-23 06:20:27 51°16.309 2°54.248 175.6 0.3 226 11.7
2007-01-23 06:20:32 51°16.309 2°54.248 175 0.3 192 11.8
2007-01-23 06:20:37 51°16.308 2°54.248 173.7 0.3 226 11.7
2007-01-23 06:20:42 51°16.308 2°54.248 172.8 0.3 185 11.9
2007-01-23 06:20:47 51°16.308 2°54.247 171.4 0.4 205 11.8
2007-01-23 06:20:52 51°16.308 2°54.247 170.3 0.2 205 11.7
2007-01-23 06:20:57 51°16.307 2°54.246 169.3 0.3 220 11.7
2007-01-23 06:21:02 51°16.307 2°54.246 167.9 0.2 207 11.7
2007-01-23 06:21:07 51°16.307 2°54.246 166.7 0.3 228 11.7
2007-01-23 06:21:12 51°16.306 2°54.246 165.9 0.2 210 11.8
2007-01-23 06:21:17 51°16.306 2°54.245 164.5 0.3 222 11.6
2007-01-23 06:21:22 51°16.306 2°54.245 163.7 0.2 215 11.7
2007-01-23 06:21:27 51°16.306 2°54.244 162.5 0.3 238 11.6
2007-01-23 06:21:32 51°16.305 2°54.244 161.9 0.3 237 11.8
2007-01-23 06:21:37 51°16.305 2°54.243 160.9 0.2 215 11.7
2007-01-23 06:21:42 51°16.305 2°54.243 159.9 0.2 215 11.6
2007-01-23 06:21:46 51°16.304 2°54.243 159.1 0.2 211 11.7
2007-01-23 06:21:52 51°16.304 2°54.242 158.3 0.3 217 11.7
2007-01-23 06:21:57 51°16.304 2°54.242 157.3 0.2 230 11.7
2007-01-23 06:22:02 51°16.304 2°54.242 156.5 0.2 221 11.8
2007-01-23 06:22:07 51°16.304 2°54.242 155.5 0.2 233 11.7
2007-01-23 06:22:12 51°16.304 2°54.241 155.3 0.2 251 11.7
2007-01-23 06:22:17 51°16.303 2°54.241 154.6 0.3 223 11.8
2007-01-23 06:22:22 51°16.303 2°54.241 154.1 0.1 223 11.7
2007-01-23 06:22:27 51°16.303 2°54.24 153.8 0.3 223 11.6
2007-01-23 06:22:32 51°16.303 2°54.24 153.6 0.1 243 11.7
2007-01-23 06:22:37 51°16.303 2°54.239 153 0.3 234 11.6
2007-01-23 06:22:42 51°16.303 2°54.239 152.7 0.2 269 11.7
2007-01-23 06:22:47 51°16.302 2°54.239 152 0.2 226 11.7
2007-01-23 06:22:52 51°16.302 2°54.239 151.5 0.1 248 11.8
2007-01-23 06:22:57 51°16.302 2°54.238 150.9 0.3 206 11.5
2007-01-23 06:23:02 51°16.302 2°54.238 150.2 0.1 81 11.6
2007-01-23 06:23:07 51°16.302 2°54.237 149.5 0.4 233 11.5
2007-01-23 06:23:12 51°16.301 2°54.237 149 0.1 226 11.6
2007-01-23 06:23:17 51°16.301 2°54.237 147.6 0.1 210 11.6
2007-01-23 06:23:22 51°16.301 2°54.237 146.6 0.2 222 11.6
2007-01-23 06:23:27 51°16.301 2°54.236 146.3 0.3 249 11.7
2007-01-23 06:23:32 51°16.301 2°54.236 145.2 0.2 238 11.7
2007-01-23 06:23:37 51°16.301 2°54.236 144.7 0.2 213 11.8
2007-01-23 06:23:41 51°16.301 2°54.236 143.7 -999 182 11.7
2007-01-23 06:23:47 51°16.3 2°54.235 143.3 0.3 222 11.6
2007-01-23 06:23:52 51°16.3 2°54.235 142.9 0.1 70 11.7
2007-01-23 06:23:57 51°16.3 2°54.234 141.9 0.3 222 11.5
2007-01-23 06:24:02 51°16.3 2°54.234 141.5 0.1 280 11.6
2007-01-23 06:24:06 51°16.3 2°54.234 140.6 -999 45 11.7
2007-01-23 06:24:12 51°16.3 2°54.234 139.9 0.2 232 11.6
2007-01-23 06:24:17 51°16.3 2°54.234 139.9 0.1 270 11.7
2007-01-23 06:24:22 51°16.3 2°54.233 139.1 0.2 242 11.7
2007-01-23 06:24:27 51°16.3 2°54.233 138.1 0.2 241 11.8
2007-01-23 06:24:32 51°16.3 2°54.233 137.5 -999 257 11.7
2007-01-23 06:24:37 51°16.299 2°54.233 136.6 0.1 219 11.7
2007-01-23 06:24:42 51°16.3 2°54.233 136.1 0.1 278 11.7
2007-01-23 06:24:47 51°16.299 2°54.233 135.1 0.1 227 11.7
2007-01-23 06:24:52 51°16.299 2°54.232 134.2 0.1 261 11.7
2007-01-23 06:24:57 51°16.299 2°54.232 133.2 0.3 233 11.6
2007-01-23 06:25:02 51°16.3 2°54.232 133 0.1 9 11.7
2007-01-23 06:25:07 51°16.299 2°54.231 131.7 0.4 226 11.6
2007-01-23 06:25:12 51°16.299 2°54.232 131.9 0.1 45 11.6
2007-01-23 06:25:17 51°16.299 2°54.231 130.7 0.1 234 11.6
2007-01-23 06:25:22 51°16.299 2°54.231 130.5 0.1 251 11.6
2007-01-23 06:25:27 51°16.299 2°54.231 130.5 -999 44 11.6
2007-01-23 06:25:32 51°16.299 2°54.231 129.3 0.1 270 11.5
2007-01-23 06:25:37 51°16.299 2°54.231 129.2 0.1 251 11.6
2007-01-23 06:25:41 51°16.299 2°54.23 128.7 0.1 250 11.6
2007-01-23 06:25:47 51°16.299 2°54.23 128.1 0.1 335 11.7
2007-01-23 06:25:52 51°16.299 2°54.23 127.3 0.1 211 11.6
2007-01-23 06:25:57 51°16.299 2°54.23 127.1 0.1 334 11.6
2007-01-23 06:26:02 51°16.299 2°54.23 126.4 0.2 218 11.7
2007-01-23 06:26:07 51°16.299 2°54.23 125.8 0.4 28 11.7
2007-01-23 06:26:12 51°16.299 2°54.229 124.5 0.5 211 11.5
2007-01-23 06:26:17 51°16.299 2°54.23 125 0.3 33 11.5
2007-01-23 06:26:22 51°16.299 2°54.229 123.9 0.2 206 11.5
2007-01-23 06:26:27 51°16.299 2°54.229 123.9 0.1 246 11.6
2007-01-23 06:26:32 51°16.299 2°54.23 123.4 0.1 24 11.7
2007-01-23 06:26:37 51°16.299 2°54.23 122.4 0.1 198 11.6
2007-01-23 06:26:42 51°16.299 2°54.23 122.9 0.1 7 11.6
2007-01-23 06:26:47 51°16.298 2°54.229 121.9 0.3 198 11.6
2007-01-23 06:26:52 51°16.299 2°54.23 122 0.2 26 11.6
2007-01-23 06:26:57 51°16.298 2°54.229 120.9 0.2 218 11.5
2007-01-23 06:27:02 51°16.298 2°54.229 121.5 0.1 315 11.7
2007-01-23 06:27:07 51°16.298 2°54.229 120.4 0.2 234 11.7
2007-01-23 06:27:12 51°16.298 2°54.229 120.4 0.1 319 11.7
2007-01-23 06:27:17 51°16.298 2°54.229 119.8 0.3 206 11.6
2007-01-23 06:27:22 51°16.298 2°54.229 119.7 0.1 43 11.5
2007-01-23 06:27:27 51°16.298 2°54.229 118.8 0.1 193 11.4
2007-01-23 06:27:32 51°16.298 2°54.229 118.5 0.1 169 11.5
2007-01-23 06:27:37 51°16.298 2°54.229 118.2 0.1 163 11.6
2007-01-23 06:27:42 51°16.298 2°54.229 117 0.1 335 11.6
2007-01-23 06:27:47 51°16.297 2°54.229 116.8 0.3 196 11.6
2007-01-23 06:27:52 51°16.298 2°54.229 116.8 0.3 10 11.8
2007-01-23 06:27:57 51°16.297 2°54.229 115.6 0.3 189 11.5
2007-01-23 06:28:01 51°16.298 2°54.23 116.3 0.1 4 11.7
2007-01-23 06:28:07 51°16.297 2°54.229 115.4 0.2 176 11.6
2007-01-23 06:28:12 51°16.297 2°54.229 115.4 0.1 26 11.6
2007-01-23 06:28:17 51°16.297 2°54.229 114.7 0.2 24 11.6
2007-01-23 06:28:22 51°16.297 2°54.229 115.1 0.4 211 11.5
2007-01-23 06:28:26 51°16.298 2°54.229 114.6 0.2 28 11.7
2007-01-23 06:28:32 51°16.297 2°54.229 113.6 0.2 41 11.5
2007-01-23 06:28:37 51°16.297 2°54.229 113.7 0.2 196 11.4
2007-01-23 06:28:42 51°16.297 2°54.229 114 0.1 28 11.5
2007-01-23 06:28:47 51°16.297 2°54.229 113.2 0.1 197 11.5
2007-01-23 06:28:52 51°16.297 2°54.229 113.1 0.2 195 11.6
2007-01-23 06:28:57 51°16.297 2°54.229 112.7 -999 219 11.6
2007-01-23 06:29:02 51°16.297 2°54.229 111.9 -999 88 11.7
2007-01-23 06:29:07 51°16.297 2°54.229 112 -999 311 11.6
2007-01-23 06:29:12 51°16.296 2°54.229 112.2 0.2 214 11.7
2007-01-23 06:29:17 51°16.297 2°54.229 112 0.1 2 11.6
2007-01-23 06:29:22 51°16.296 2°54.229 111.5 0.3 189 11.7
2007-01-23 06:29:27 51°16.297 2°54.229 111 0.3 28 11.6
2007-01-23 06:29:32 51°16.296 2°54.229 110.9 0.6 184 11.5
2007-01-23 06:29:37 51°16.297 2°54.23 111.1 0.4 22 11.6
2007-01-23 06:29:42 51°16.296 2°54.229 109.3 0.2 191 11.5
2007-01-23 06:29:47 51°16.296 2°54.229 110 0.1 177 11.5
2007-01-23 06:29:52 51°16.296 2°54.229 108.8 -999 107 11.5
2007-01-23 06:29:57 51°16.296 2°54.229 108.5 0.1 225 11.6
2007-01-23 06:30:02 51°16.296 2°54.229 108.8 -999 185 11.7
2007-01-23 06:30:07 51°16.296 2°54.229 108 -999 315 11.7
2007-01-23 06:30:12 51°16.296 2°54.229 107.6 0.1 223 11.5
2007-01-23 06:30:17 51°16.296 2°54.229 107.9 0.1 194 11.6
2007-01-23 06:30:22 51°16.296 2°54.229 107.4 0.2 272 11.6
2007-01-23 06:30:27 51°16.296 2°54.229 107 0.1 31 11.6
2007-01-23 06:30:32 51°16.296 2°54.229 106.4 0.2 219 11.5
2007-01-23 06:30:37 51°16.296 2°54.229 106 0.2 207 11.6
2007-01-23 06:30:42 51°16.296 2°54.229 106 0.2 17 11.6
2007-01-23 06:30:47 51°16.295 2°54.228 105.5 0.3 206 11.4
2007-01-23 06:30:52 51°16.296 2°54.228 106 0.1 262 11.5
2007-01-23 06:30:57 51°16.296 2°54.228 106 0.1 10 11.4
2007-01-23 06:31:02 51°16.295 2°54.228 105.4 0.3 219 11.4
2007-01-23 06:31:07 51°16.295 2°54.228 105.9 0.1 275 11.6
2007-01-23 06:31:12 51°16.295 2°54.228 105.5 0.1 337 11.6
2007-01-23 06:31:17 51°16.295 2°54.228 105.3 0.2 203 11.5
2007-01-23 06:31:22 51°16.296 2°54.228 105.2 0.2 342 11.6
2007-01-23 06:31:27 51°16.295 2°54.228 104.5 0.3 191 11.6
2007-01-23 06:31:32 51°16.296 2°54.228 104.5 0.4 9 11.6
2007-01-23 06:31:37 51°16.295 2°54.228 103.3 0.1 190 11.5
2007-01-23 06:31:42 51°16.295 2°54.228 103.4 0.1 150 11.4
2007-01-23 06:31:47 51°16.296 2°54.228 102.8 0.3 17 11.6
2007-01-23 06:31:52 51°16.295 2°54.228 102.2 0.1 7 11.4
2007-01-23 06:31:57 51°16.295 2°54.227 102.2 0.3 198 11.5
2007-01-23 06:32:02 51°16.296 2°54.228 101.1 0.3 15 11.5
2007-01-23 06:32:07 51°16.295 2°54.227 100 0.2 196 11.5
2007-01-23 06:32:12 51°16.295 2°54.227 100.1 0.1 187 11.5
2007-01-23 06:32:17 51°16.295 2°54.227 99.4 0.1 223 11.6
2007-01-23 06:32:22 51°16.296 2°54.227 98.8 0.1 201 11.6
2007-01-23 06:32:27 51°16.296 2°54.227 98.6 0.2 18 11.6
2007-01-23 06:32:32 51°16.296 2°54.227 98 0.1 222 11.4
2007-01-23 06:32:37 51°16.296 2°54.227 98.5 0.1 296 11.4
2007-01-23 06:32:42 51°16.296 2°54.227 97.9 -999 277 11.6
2007-01-23 06:32:47 51°16.296 2°54.227 97.2 0.1 334 11.5
2007-01-23 06:32:52 51°16.295 2°54.227 97.7 0.1 268 11.6
2007-01-23 06:32:57 51°16.295 2°54.227 97.2 0.2 348 11.6
2007-01-23 06:33:02 51°16.295 2°54.226 97.2 0.2 205 11.5
2007-01-23 06:33:07 51°16.296 2°54.226 96.5 0.3 356 11.6
2007-01-23 06:33:12 51°16.295 2°54.226 96 0.2 187 11.5
2007-01-23 06:33:17 51°16.296 2°54.226 96.1 0.1 349 11.6
2007-01-23 06:33:22 51°16.295 2°54.226 95.5 0.1 188 11.6
2007-01-23 06:33:26 51°16.296 2°54.226 95.5 0.1 274 11.6
2007-01-23 06:33:32 51°16.296 2°54.226 95 0.2 340 11.5
2007-01-23 06:33:37 51°16.295 2°54.226 95.2 0.4 198 11.5
2007-01-23 06:33:42 51°16.296 2°54.226 94.6 0.3 352 11.6
2007-01-23 06:33:47 51°16.296 2°54.226 94.6 -999 326 11.5
2007-01-23 06:33:52 51°16.295 2°54.225 94.6 0.1 235 11.4
2007-01-23 06:33:57 51°16.296 2°54.225 94.6 0.1 256 11.5
2007-01-23 06:34:02 51°16.296 2°54.225 93.9 0.3 2 11.6
2007-01-23 06:34:07 51°16.296 2°54.225 93.6 0.2 185 11.4
2007-01-23 06:34:12 51°16.296 2°54.225 93.6 0.2 2 11.5
2007-01-23 06:34:17 51°16.296 2°54.225 92.9 0.1 161 11.4
2007-01-23 06:34:22 51°16.296 2°54.225 92.7 -999 163 11.5
2007-01-23 06:34:27 51°16.296 2°54.225 92.8 0.4 2 11.4
2007-01-23 06:34:32 51°16.295 2°54.225 92.4 0.3 180 11.3
2007-01-23 06:34:37 51°16.296 2°54.225 92.1 0.1 351 11.4
2007-01-23 06:34:42 51°16.296 2°54.225 91.9 0.1 172 11.3
2007-01-23 06:34:47 51°16.296 2°54.225 91.5 0.3 -999 11.4
2007-01-23 06:34:52 51°16.296 2°54.225 91.4 0.1 175 11.4
2007-01-23 06:34:57 51°16.296 2°54.225 91.2 0.1 181 11.5
2007-01-23 06:35:02 51°16.296 2°54.226 90.9 0.1 14 11.6
2007-01-23 06:35:07 51°16.296 2°54.226 90.5 0.3 10 11.5
2007-01-23 06:35:12 51°16.296 2°54.226 90.7 0.4 179 11.3
2007-01-23 06:35:17 51°16.296 2°54.226 90.3 0.5 354 11.4
2007-01-23 06:35:22 51°16.296 2°54.226 90 0.3 168 11.3
2007-01-23 06:35:26 51°16.296 2°54.226 90.5 0.2 357 11.4
2007-01-23 06:35:32 51°16.296 2°54.226 90 0.1 185 11.4
2007-01-23 06:35:37 51°16.296 2°54.226 89.9 -999 263 11.5
2007-01-23 06:35:42 51°16.296 2°54.226 89.3 0.2 345 11.6
2007-01-23 06:35:47 51°16.296 2°54.226 89.1 0.1 166 11.3
2007-01-23 06:35:52 51°16.296 2°54.225 89.4 0.1 214 11.5
2007-01-23 06:35:57 51°16.296 2°54.225 89 0.2 345 11.6
2007-01-23 06:36:02 51°16.296 2°54.225 88.5 -999 164 11.5
2007-01-23 06:36:07 51°16.296 2°54.225 88.9 0.2 333 11.4
2007-01-23 06:36:12 51°16.296 2°54.225 88.3 0.1 192 11.4
2007-01-23 06:36:17 51°16.297 2°54.225 88.4 0.2 353 11.4
2007-01-23 06:36:22 51°16.296 2°54.225 87.8 0.1 279 11.4
2007-01-23 06:36:27 51°16.297 2°54.224 87.6 0.1 260 11.5
2007-01-23 06:36:32 51°16.297 2°54.224 86.7 0.3 331 11.6
2007-01-23 06:36:37 51°16.297 2°54.224 85.6 0.1 211 11.4
2007-01-23 06:36:42 51°16.297 2°54.224 85.9 0.2 314 11.5
2007-01-23 06:36:47 51°16.297 2°54.224 84.9 0.2 181 11.5
2007-01-23 06:36:52 51°16.297 2°54.224 85.1 0.6 349 11.5
2007-01-23 06:36:57 51°16.296 2°54.225 84.1 0.5 164 11.3
2007-01-23 06:37:02 51°16.297 2°54.224 84.3 0.3 350 11.4
2007-01-23 06:37:07 51°16.297 2°54.225 83.7 -999 107 11.4
2007-01-23 06:37:12 51°16.297 2°54.224 83.1 0.1 343 11.4
2007-01-23 06:37:17 51°16.297 2°54.224 82.8 0.2 197 11.4
2007-01-23 06:37:22 51°16.297 2°54.224 82.5 0.1 -999 11.7
2007-01-23 06:37:27 51°16.297 2°54.224 81.8 -999 30 11.5
2007-01-23 06:37:32 51°16.297 2°54.224 82.1 0.2 158 11.4
2007-01-23 06:37:37 51°16.297 2°54.224 82.3 0.3 351 11.5
2007-01-23 06:37:42 51°16.297 2°54.224 81.9 -999 341 11.4
2007-01-23 06:37:46 51°16.297 2°54.224 82 0.1 323 11.5
2007-01-23 06:37:52 51°16.297 2°54.224 81.9 0.3 158 11.5
2007-01-23 06:37:57 51°16.298 2°54.224 81.2 0.5 348 11.7
2007-01-23 06:38:02 51°16.298 2°54.224 81.3 0.1 103 11.5
2007-01-23 06:38:07 51°16.298 2°54.224 81.2 0.5 347 11.3
2007-01-23 06:38:12 51°16.298 2°54.224 80.3 0.4 169 11.2
2007-01-23 06:38:17 51°16.298 2°54.224 80.6 0.3 347 11.4
2007-01-23 06:38:22 51°16.299 2°54.224 79.7 0.2 356 11.5
2007-01-23 06:38:27 51°16.298 2°54.224 79.4 0.1 3 11.2
2007-01-23 06:38:32 51°16.299 2°54.224 79.2 0.2 350 11.3
2007-01-23 06:38:37 51°16.299 2°54.224 78.7 0.1 18 11.3
2007-01-23 06:38:42 51°16.299 2°54.224 78.1 0.1 81 11.4
2007-01-23 06:38:47 51°16.299 2°54.224 77.7 0.1 33 11.5
2007-01-23 06:38:52 51°16.299 2°54.224 77.2 0.2 2 11.6
2007-01-23 06:38:57 51°16.299 2°54.224 77.2 0.1 142 11.5
2007-01-23 06:39:02 51°16.3 2°54.224 76.9 0.3 2 11.5
2007-01-23 06:39:07 51°16.299 2°54.225 76.8 0.1 40 11.5
2007-01-23 06:39:12 51°16.3 2°54.225 76.7 0.1 34 11.4
2007-01-23 06:39:17 51°16.3 2°54.225 76.8 0.2 350 11.6
2007-01-23 06:39:22 51°16.3 2°54.225 76.3 0.1 134 11.4
2007-01-23 06:39:27 51°16.3 2°54.225 76.4 0.3 358 11.5
2007-01-23 06:39:32 51°16.3 2°54.225 76.8 0.1 97 11.4
2007-01-23 06:39:37 51°16.3 2°54.225 76.3 0.3 359 11.3
2007-01-23 06:39:42 51°16.3 2°54.225 76.7 0.2 143 11.3
2007-01-23 06:39:47 51°16.3 2°54.225 76.9 0.2 3 11.2
2007-01-23 06:39:52 51°16.3 2°54.225 77 0.1 139 11.3
2007-01-23 06:39:57 51°16.3 2°54.225 77 0.1 7 11.3
2007-01-23 06:40:02 51°16.3 2°54.225 77.3 0.1 135 11.5
2007-01-23 06:40:07 51°16.301 2°54.225 77.4 0.3 9 11.4
2007-01-23 06:40:12 51°16.3 2°54.226 77.3 0.5 155 11.3
2007-01-23 06:40:17 51°16.301 2°54.225 77.8 0.4 352 11.4
2007-01-23 06:40:22 51°16.3 2°54.225 77.6 0.1 149 11.3
2007-01-23 06:40:27 51°16.301 2°54.225 78 -999 144 11.3
2007-01-23 06:40:32 51°16.301 2°54.225 77.6 0.2 358 11.4
2007-01-23 06:40:37 51°16.301 2°54.226 77.5 -999 90 11.3
2007-01-23 06:40:42 51°16.301 2°54.226 78 0.1 10 11.4
2007-01-23 06:40:47 51°16.301 2°54.226 77.9 -999 44 11.3
2007-01-23 06:40:52 51°16.301 2°54.225 78 0.1 155 11.4
2007-01-23 06:40:57 51°16.301 2°54.226 78.2 0.1 112 11.4
2007-01-23 06:41:02 51°16.302 2°54.225 78 0.3 351 11.4
2007-01-23 06:41:07 51°16.301 2°54.226 78.1 0.3 157 11.3
2007-01-23 06:41:12 51°16.302 2°54.225 78.3 0.3 353 11.4
2007-01-23 06:41:17 51°16.301 2°54.226 77.8 -999 114 11.3
2007-01-23 06:41:22 51°16.302 2°54.225 78.5 0.2 335 11.4
2007-01-23 06:41:27 51°16.301 2°54.226 78.3 0.2 160 11.4
2007-01-23 06:41:32 51°16.302 2°54.225 78.3 0.4 343 11.4
2007-01-23 06:41:37 51°16.301 2°54.226 77.7 0.3 174 11.4
2007-01-23 06:41:42 51°16.302 2°54.225 78.7 0.2 333 11.4
2007-01-23 06:41:47 51°16.302 2°54.225 78 0.1 180 11.4
2007-01-23 06:41:52 51°16.302 2°54.225 78.9 0.3 348 11.4
2007-01-23 06:41:57 51°16.302 2°54.225 79.1 0.3 164 11.3
2007-01-23 06:42:02 51°16.302 2°54.225 79.9 0.4 347 11.4
2007-01-23 06:42:07 51°16.302 2°54.225 79.9 0.1 177 11.3
2007-01-23 06:42:12 51°16.302 2°54.225 80.2 0.1 188 11.3
2007-01-23 06:42:17 51°16.302 2°54.225 80.9 0.3 341 11.3
2007-01-23 06:42:22 51°16.302 2°54.225 80.9 0.1 178 11.2
2007-01-23 06:42:27 51°16.302 2°54.225 81.4 0.1 168 11.1
2007-01-23 06:42:32 51°16.302 2°54.225 81.8 0.1 39 11.2
2007-01-23 06:42:37 51°16.302 2°54.225 82.3 0.1 153 11.2
2007-01-23 06:42:42 51°16.302 2°54.225 82.8 -999 332 11.2
2007-01-23 06:42:47 51°16.302 2°54.225 83.2 0.2 330 11.3
2007-01-23 06:42:52 51°16.302 2°54.225 83.4 0.2 167 11.3
2007-01-23 06:42:57 51°16.302 2°54.225 83.4 0.2 2 11.3
2007-01-23 06:43:02 51°16.302 2°54.225 83.4 0.3 156 11.3
2007-01-23 06:43:07 51°16.302 2°54.225 84.1 0.3 350 11.3
2007-01-23 06:43:12 51°16.301 2°54.225 83.4 0.4 173 11.1
2007-01-23 06:43:17 51°16.302 2°54.225 84.1 0.1 348 11.4
2007-01-23 06:43:22 51°16.302 2°54.225 84.2 0.1 341 11.4
2007-01-23 06:43:27 51°16.301 2°54.225 84.4 0.1 181 11.1
2007-01-23 06:43:32 51°16.301 2°54.225 85.1 0.2 176 11.2
2007-01-23 06:43:37 51°16.302 2°54.225 84.9 0.2 351 11.3
2007-01-23 06:43:42 51°16.301 2°54.225 84.9 0.1 183 11.3
2007-01-23 06:43:47 51°16.301 2°54.225 85.3 0.1 161 11.2
2007-01-23 06:43:52 51°16.301 2°54.225 85.1 0.1 308 11.4
2007-01-23 06:43:57 51°16.301 2°54.225 85.3 -999 304 11.4
2007-01-23 06:44:02 51°16.301 2°54.225 85.2 0.3 182 11.4
2007-01-23 06:44:07 51°16.301 2°54.225 85.3 0.1 4 11.5
2007-01-23 06:44:12 51°16.301 2°54.225 85.2 0.1 273 11.4
2007-01-23 06:44:17 51°16.301 2°54.225 84.9 0.2 201 11.3
2007-01-23 06:44:22 51°16.301 2°54.225 85.6 0.2 188 11.4
2007-01-23 06:44:27 51°16.301 2°54.225 84.9 -999 293 11.3
2007-01-23 06:44:32 51°16.3 2°54.224 85.6 0.1 209 11.3
2007-01-23 06:44:37 51°16.301 2°54.224 85.7 0.1 283 11.3
2007-01-23 06:44:42 51°16.3 2°54.224 86 0.2 197 11.3
2007-01-23 06:44:47 51°16.3 2°54.224 85.9 0.1 249 11.3
2007-01-23 06:44:52 51°16.3 2°54.224 85.8 0.1 192 11.4
2007-01-23 06:44:57 51°16.3 2°54.224 85.7 0.1 325 11.4
2007-01-23 06:45:02 51°16.3 2°54.224 85.4 0.3 192 11.4
2007-01-23 06:45:07 51°16.3 2°54.224 85.4 0.2 349 11.4
2007-01-23 06:45:12 51°16.3 2°54.224 84.7 0.1 188 11.2
2007-01-23 06:45:17 51°16.3 2°54.224 84.6 0.1 317 11.2
2007-01-23 06:45:22 51°16.3 2°54.224 84.3 0.2 176 11.3
2007-01-23 06:45:27 51°16.3 2°54.224 83.9 0.2 345 11.3
2007-01-23 06:45:32 51°16.299 2°54.224 83.8 0.2 178 11.3
2007-01-23 06:45:37 51°16.299 2°54.224 83.6 0.2 176 11.3
2007-01-23 06:45:42 51°16.3 2°54.224 83.5 0.2 352 11.4
2007-01-23 06:45:47 51°16.299 2°54.224 83.4 0.4 163 11.2
2007-01-23 06:45:52 51°16.3 2°54.224 84 0.3 6 11.3
2007-01-23 06:45:57 51°16.299 2°54.224 83.5 0.3 154 11.2
2007-01-23 06:46:02 51°16.3 2°54.224 83.7 0.2 8 11.2
2007-01-23 06:46:07 51°16.299 2°54.224 83.4 0.3 162 11.2
2007-01-23 06:46:12 51°16.3 2°54.224 83.4 0.1 9 11.3
2007-01-23 06:46:17 51°16.299 2°54.225 83.4 0.1 135 11.1
2007-01-23 06:46:22 51°16.299 2°54.224 83.3 0.1 349 11.2
2007-01-23 06:46:27 51°16.299 2°54.225 83.8 0.2 164 11.2
2007-01-23 06:46:32 51°16.299 2°54.225 83.4 -999 153 11.3
2007-01-23 06:46:37 51°16.299 2°54.225 82.7 0.1 76 11.3
2007-01-23 06:46:42 51°16.299 2°54.225 82.9 0.1 74 11.2
2007-01-23 06:46:47 51°16.299 2°54.225 82.8 0.3 169 11.2
2007-01-23 06:46:52 51°16.299 2°54.225 83 0.2 348 11.3
2007-01-23 06:46:57 51°16.299 2°54.225 82.3 -999 348 11.2
2007-01-23 06:47:02 51°16.299 2°54.225 82 0.1 149 11.1
2007-01-23 06:47:07 51°16.299 2°54.225 81.7 0.1 136 11.2
2007-01-23 06:47:12 51°16.299 2°54.225 81.1 0.4 343 11.4
2007-01-23 06:47:17 51°16.299 2°54.225 79.9 0.2 175 11.2
2007-01-23 06:47:22 51°16.299 2°54.225 80.4 0.1 191 11.2
2007-01-23 06:47:27 51°16.299 2°54.224 79.2 0.3 333 11.3
2007-01-23 06:47:32 51°16.299 2°54.225 78.9 0.2 183 11.2
2007-01-23 06:47:37 51°16.299 2°54.224 78.4 0.3 329 11.4
2007-01-23 06:47:42 51°16.299 2°54.224 77.6 0.3 180 11.3
2007-01-23 06:47:47 51°16.3 2°54.224 78 0.5 331 11.3
2007-01-23 06:47:52 51°16.299 2°54.224 77.4 0.4 182 11.3
2007-01-23 06:47:57 51°16.3 2°54.223 77 0.5 333 11.4
2007-01-23 06:48:02 51°16.299 2°54.224 76.9 0.4 178 11.3
2007-01-23 06:48:07 51°16.3 2°54.223 77 0.4 333 11.4
2007-01-23 06:48:12 51°16.299 2°54.224 76.7 0.2 177 11.3
2007-01-23 06:48:17 51°16.3 2°54.223 76.3 0.3 333 11.3
2007-01-23 06:48:22 51°16.3 2°54.223 76.4 0.1 246 11.3
2007-01-23 06:48:27 51°16.3 2°54.223 75.7 0.1 269 11.2
2007-01-23 06:48:32 51°16.3 2°54.223 75.7 0.2 284 11.4
2007-01-23 06:48:37 51°16.3 2°54.223 75.5 0.2 323 11.3
2007-01-23 06:48:42 51°16.299 2°54.223 75.2 0.2 181 11.1
2007-01-23 06:48:47 51°16.3 2°54.222 75.1 0.2 314 11.2
2007-01-23 06:48:52 51°16.3 2°54.222 74.7 0.2 337 11.3
2007-01-23 06:48:57 51°16.3 2°54.222 74.2 0.1 193 11.1
2007-01-23 06:49:02 51°16.3 2°54.222 74.5 0.2 331 11
2007-01-23 06:49:07 51°16.3 2°54.222 74.3 0.3 172 11.1
2007-01-23 06:49:12 51°16.301 2°54.221 74.1 0.4 331 11.3
2007-01-23 06:49:17 51°16.3 2°54.221 74 0.2 313 11.2
2007-01-23 06:49:22 51°16.3 2°54.221 74 0.2 188 11
2007-01-23 06:49:27 51°16.3 2°54.221 74 0.2 175 11.1
2007-01-23 06:49:32 51°16.3 2°54.221 74 0.4 337 11.1
2007-01-23 06:49:37 51°16.3 2°54.221 73.6 0.2 160 11
2007-01-23 06:49:42 51°16.3 2°54.221 73.6 0.1 325 11.1
2007-01-23 06:49:47 51°16.3 2°54.221 73.3 -999 197 11.3
2007-01-23 06:49:52 51°16.3 2°54.22 73.7 -999 199 11.2
2007-01-23 06:49:57 51°16.301 2°54.22 73.1 0.2 326 11.4
2007-01-23 06:50:02 51°16.3 2°54.22 73.8 0.1 211 11.3
2007-01-23 06:50:07 51°16.301 2°54.22 73.3 0.2 328 11.3
2007-01-23 06:50:12 51°16.301 2°54.22 73.7 -999 4 11.3
2007-01-23 06:50:17 51°16.301 2°54.22 73.7 0.1 347 11.1
2007-01-23 06:50:22 51°16.301 2°54.22 73.7 -999 235 11.2
2007-01-23 06:50:27 51°16.301 2°54.22 74.3 -999 195 11.1
2007-01-23 06:50:32 51°16.301 2°54.219 74.7 0.1 286 11.1
2007-01-23 06:50:37 51°16.301 2°54.219 74.7 0.1 328 11.2
2007-01-23 06:50:42 51°16.301 2°54.219 75 0.3 168 11.1
2007-01-23 06:50:47 51°16.301 2°54.219 75.3 0.4 336 11.2
2007-01-23 06:50:52 51°16.3 2°54.219 75.7 0.3 159 11.1
2007-01-23 06:50:57 51°16.301 2°54.219 75.6 0.2 340 11.3
2007-01-23 06:51:02 51°16.301 2°54.219 76.1 -999 128 11.1
2007-01-23 06:51:07 51°16.301 2°54.219 76.4 0.2 158 11.1
2007-01-23 06:51:12 51°16.301 2°54.219 76.1 0.3 348 11.2
2007-01-23 06:51:17 51°16.3 2°54.219 76.8 0.5 162 11.2
2007-01-23 06:51:22 51°16.301 2°54.219 77.1 0.5 344 11.3
2007-01-23 06:51:27 51°16.301 2°54.22 76.7 0.4 150 11.1
2007-01-23 06:51:32 51°16.301 2°54.219 77.6 0.4 350 11.1
2007-01-23 06:51:37 51°16.301 2°54.219 78 -999 27 11.2
2007-01-23 06:51:42 51°16.301 2°54.219 78 0.1 135 11.1
2007-01-23 06:51:47 51°16.301 2°54.219 77.8 0.1 8 11.2
2007-01-23 06:51:52 51°16.301 2°54.22 78 -999 79 11.2
2007-01-23 06:51:57 51°16.301 2°54.22 77.7 -999 93 11.2
2007-01-23 06:52:02 51°16.302 2°54.22 77.9 0.1 46 11.3
2007-01-23 06:52:07 51°16.302 2°54.22 77.5 0.3 8 11.3
2007-01-23 06:52:12 51°16.301 2°54.22 77.6 0.3 150 11.1
2007-01-23 06:52:17 51°16.302 2°54.22 77.6 0.2 -999 11.1
2007-01-23 06:52:22 51°16.302 2°54.22 77.6 0.2 348 11.2
2007-01-23 06:52:27 51°16.301 2°54.22 77.8 -999 197 11
2007-01-23 06:52:32 51°16.301 2°54.22 77.6 0.2 159 11.1
2007-01-23 06:52:37 51°16.302 2°54.22 77.2 0.3 343 11
2007-01-23 06:52:42 51°16.301 2°54.22 77.6 0.5 169 11.1
2007-01-23 06:52:47 51°16.302 2°54.22 77.6 0.4 342 11.2
2007-01-23 06:52:52 51°16.301 2°54.22 77.4 0.3 158 11.2
2007-01-23 06:52:57 51°16.302 2°54.22 77.8 0.3 349 11.1
2007-01-23 06:53:02 51°16.301 2°54.22 77.7 0.3 161 11.1
2007-01-23 06:53:07 51°16.302 2°54.22 77.7 0.4 351 11.3
2007-01-23 06:53:12 51°16.301 2°54.22 77.6 0.3 171 11.2
2007-01-23 06:53:17 51°16.302 2°54.22 77.6 0.5 342 11.3
2007-01-23 06:53:22 51°16.302 2°54.22 77.2 0.2 167 11.2
2007-01-23 06:53:27 51°16.302 2°54.22 76.8 0.4 344 11.1
2007-01-23 06:53:32 51°16.301 2°54.221 77 0.5 161 11
2007-01-23 06:53:37 51°16.302 2°54.22 76.7 0.3 343 11.2
2007-01-23 06:53:42 51°16.302 2°54.22 76 0.3 152 11.1
2007-01-23 06:53:47 51°16.302 2°54.22 76.2 0.5 341 11.2
2007-01-23 06:53:52 51°16.301 2°54.22 75.5 0.2 161 10.9
2007-01-23 06:53:57 51°16.302 2°54.22 75.7 0.1 312 11
2007-01-23 06:54:02 51°16.302 2°54.219 75.6 0.1 288 11.1
2007-01-23 06:54:07 51°16.302 2°54.219 75.3 0.1 214 11.1
2007-01-23 06:54:12 51°16.302 2°54.219 75 0.1 251 11.2
2007-01-23 06:54:17 51°16.302 2°54.219 75 0.2 333 11.2
2007-01-23 06:54:22 51°16.302 2°54.219 75 0.1 160 11.2
2007-01-23 06:54:27 51°16.302 2°54.219 74.7 0.1 79 11.1
2007-01-23 06:54:32 51°16.302 2°54.219 75.2 0.1 358 11.1
2007-01-23 06:54:37 51°16.302 2°54.219 75.3 0.1 170 11.1
2007-01-23 06:54:42 51°16.302 2°54.219 75.4 -999 16 11.1
2007-01-23 06:54:47 51°16.302 2°54.219 75.8 0.2 4 11.2
2007-01-23 06:54:52 51°16.302 2°54.219 76.1 0.3 159 11.1
2007-01-23 06:54:57 51°16.302 2°54.219 76.6 0.1 1 11.2
2007-01-23 06:55:02 51°16.302 2°54.219 76.9 0.1 47 11.1
2007-01-23 06:55:07 51°16.302 2°54.219 77.2 0.1 17 11.1
2007-01-23 06:55:12 51°16.302 2°54.219 77.6 -999 203 11
2007-01-23 06:55:17 51°16.302 2°54.219 78.1 0.3 176 11
2007-01-23 06:55:22 51°16.302 2°54.219 79 0.2 180 11.2
2007-01-23 06:55:27 51°16.302 2°54.219 79.6 0.1 8 11.1
2007-01-23 06:55:32 51°16.302 2°54.219 80.2 0.1 191 10.9
2007-01-23 06:55:37 51°16.302 2°54.219 81.3 0.1 189 11.1
2007-01-23 06:55:42 51°16.302 2°54.219 81.4 0.2 342 11.1
2007-01-23 06:55:47 51°16.301 2°54.219 81.4 0.2 169 11
2007-01-23 06:55:52 51°16.301 2°54.219 82.3 0.1 216 11
2007-01-23 06:55:57 51°16.301 2°54.219 82.1 0.1 308 11.2
2007-01-23 06:56:02 51°16.301 2°54.219 82.1 0.4 177 11.2
2007-01-23 06:56:07 51°16.302 2°54.219 82.3 0.2 340 11.3
2007-01-23 06:56:12 51°16.301 2°54.219 82.2 0.2 209 11.2
2007-01-23 06:56:17 51°16.301 2°54.219 82.5 0.1 172 11.2
2007-01-23 06:56:22 51°16.301 2°54.219 82.3 0.2 352 11.1
2007-01-23 06:56:27 51°16.301 2°54.219 82.3 0.2 179 11
2007-01-23 06:56:32 51°16.301 2°54.219 82.4 0.1 243 11.1
2007-01-23 06:56:37 51°16.301 2°54.219 82.1 -999 320 11.2
2007-01-23 06:56:42 51°16.301 2°54.219 81.8 -999 183 11.1
2007-01-23 06:56:47 51°16.301 2°54.219 81.9 0.1 347 11.2
2007-01-23 06:56:52 51°16.301 2°54.219 81.5 0.1 173 11
2007-01-23 06:56:57 51°16.301 2°54.219 81.5 -999 194 11.1
2007-01-23 06:57:02 51°16.301 2°54.219 81.2 0.1 72 11
2007-01-23 06:57:07 51°16.301 2°54.219 81.2 0.1 53 11.1
2007-01-23 06:57:12 51°16.301 2°54.219 81 0.1 -999 11
2007-01-23 06:57:17 51°16.301 2°54.219 81.1 0.1 137 11
2007-01-23 06:57:22 51°16.301 2°54.219 80.5 0.1 165 11
2007-01-23 06:57:27 51°16.301 2°54.219 80.3 -999 181 11.2
2007-01-23 06:57:32 51°16.301 2°54.219 80.3 -999 244 11.1
2007-01-23 06:57:37 51°16.301 2°54.219 80.1 0.1 355 11.1
2007-01-23 06:57:42 51°16.301 2°54.219 80.1 0.1 104 11
2007-01-23 06:57:47 51°16.301 2°54.22 80.1 0.2 121 11
2007-01-23 06:57:52 51°16.301 2°54.22 80.5 0.1 28 11
2007-01-23 06:57:57 51°16.301 2°54.219 80.3 -999 43 11
2007-01-23 06:58:02 51°16.301 2°54.22 80.1 0.2 156 11
2007-01-23 06:58:07 51°16.301 2°54.22 80.3 0.2 1 11
2007-01-23 06:58:12 51°16.301 2°54.22 79.5 -999 100 11
2007-01-23 06:58:17 51°16.301 2°54.22 80.2 0.1 112 11
2007-01-23 06:58:22 51°16.301 2°54.22 79.5 0.2 336 11.1
2007-01-23 06:58:27 51°16.301 2°54.22 79.8 0.1 196 11
2007-01-23 06:58:32 51°16.301 2°54.22 79.7 0.3 162 11.1
2007-01-23 06:58:37 51°16.302 2°54.22 79.7 0.5 349 11.2
2007-01-23 06:58:42 51°16.301 2°54.22 79.8 0.6 169 11
2007-01-23 06:58:47 51°16.302 2°54.22 79.8 0.5 346 11.1
2007-01-23 06:58:52 51°16.301 2°54.22 79.5 0.3 164 11
2007-01-23 06:58:57 51°16.302 2°54.22 79.6 0.4 344 10.9
2007-01-23 06:59:02 51°16.301 2°54.22 79.7 0.4 170 11
2007-01-23 06:59:07 51°16.302 2°54.22 79.5 0.3 344 11
2007-01-23 06:59:12 51°16.301 2°54.22 79.3 0.3 174 11
2007-01-23 06:59:17 51°16.301 2°54.22 79.4 0.1 163 11.1
2007-01-23 06:59:22 51°16.301 2°54.219 79.7 0.2 328 11.2
2007-01-23 06:59:27 51°16.301 2°54.219 79.1 0.1 175 11
2007-01-23 06:59:32 51°16.301 2°54.219 80 0.1 323 10.9
2007-01-23 06:59:37 51°16.301 2°54.22 79.2 0.1 180 10.9
2007-01-23 06:59:42 51°16.301 2°54.219 79.4 0.1 335 11
2007-01-23 06:59:47 51°16.301 2°54.219 78.6 0.2 194 11
2007-01-23 06:59:52 51°16.301 2°54.219 79.5 0.1 228 11
2007-01-23 06:59:57 51°16.301 2°54.219 79.1 0.1 176 11.1
2007-01-23 07:00:02 51°16.301 2°54.219 79.1 0.1 269 11.1
2007-01-23 07:00:07 51°16.3 2°54.219 78.5 0.2 179 11.1
2007-01-23 07:00:12 51°16.301 2°54.219 78.5 0.2 320 11.1
2007-01-23 07:00:17 51°16.3 2°54.219 77.6 0.3 181 11.1
2007-01-23 07:00:22 51°16.3 2°54.219 78.1 -999 265 11
2007-01-23 07:00:27 51°16.3 2°54.219 77.6 0.1 323 11.1
2007-01-23 07:00:32 51°16.3 2°54.219 77.7 0.2 156 11
2007-01-23 07:00:37 51°16.3 2°54.219 77.9 0.1 352 11
2007-01-23 07:00:42 51°16.3 2°54.219 77.8 -999 358 11
2007-01-23 07:00:47 51°16.3 2°54.219 77.4 0.1 28 11
2007-01-23 07:00:52 51°16.3 2°54.219 77.8 0.2 151 11
2007-01-23 07:00:57 51°16.301 2°54.219 77.5 0.2 352 11
2007-01-23 07:01:02 51°16.3 2°54.219 77.4 -999 95 11
2007-01-23 07:01:07 51°16.3 2°54.219 77.3 0.1 139 10.9
2007-01-23 07:01:12 51°16.301 2°54.219 78.1 -999 101 11
2007-01-23 07:01:17 51°16.3 2°54.219 77.7 0.1 13 11
2007-01-23 07:01:22 51°16.3 2°54.219 78 0.2 158 11
2007-01-23 07:01:27 51°16.3 2°54.219 77.7 0.1 352 11
2007-01-23 07:01:32 51°16.3 2°54.219 78 0.4 158 11.1
2007-01-23 07:01:37 51°16.301 2°54.219 77.8 0.4 343 11.1
2007-01-23 07:01:42 51°16.3 2°54.219 77.4 0.2 164 11
2007-01-23 07:01:47 51°16.3 2°54.219 77.6 0.2 351 11
2007-01-23 07:01:52 51°16.3 2°54.219 77.5 0.1 152 11
2007-01-23 07:01:57 51°16.3 2°54.219 77.5 0.1 41 11
2007-01-23 07:02:02 51°16.3 2°54.219 77.7 0.2 348 11.1
2007-01-23 07:02:07 51°16.3 2°54.219 77.2 0.1 148 11
2007-01-23 07:02:12 51°16.3 2°54.219 77.6 0.1 353 11
2007-01-23 07:02:17 51°16.3 2°54.219 76.9 0.1 168 10.9
2007-01-23 07:02:22 51°16.3 2°54.219 77.7 -999 15 11.1
2007-01-23 07:02:27 51°16.3 2°54.219 77 0.2 347 11
2007-01-23 07:02:32 51°16.3 2°54.219 77 0.1 163 10.9
2007-01-23 07:02:37 51°16.3 2°54.219 77.6 0.1 344 10.9
2007-01-23 07:02:42 51°16.3 2°54.219 77.6 0.1 196 11
2007-01-23 07:02:47 51°16.3 2°54.219 77.5 0.1 339 11
2007-01-23 07:02:52 51°16.3 2°54.219 77.9 0.2 176 11
2007-01-23 07:02:57 51°16.3 2°54.219 77.4 0.2 328 11.1
2007-01-23 07:03:02 51°16.3 2°54.219 77.8 -999 273 11.1
2007-01-23 07:03:07 51°16.3 2°54.219 77.4 0.1 197 11
2007-01-23 07:03:12 51°16.3 2°54.219 77.5 0.3 336 11.1
2007-01-23 07:03:17 51°16.3 2°54.219 77.8 -999 216 10.9
2007-01-23 07:03:22 51°16.3 2°54.219 77.1 0.1 169 10.8
2007-01-23 07:03:27 51°16.3 2°54.218 77.8 0.1 338 10.9
2007-01-23 07:03:32 51°16.3 2°54.219 77.2 0.1 174 10.9
2007-01-23 07:03:37 51°16.3 2°54.219 77.4 -999 126 11
2007-01-23 07:03:42 51°16.3 2°54.218 77.3 0.2 345 10.9
2007-01-23 07:03:47 51°16.3 2°54.219 77.6 0.3 170 10.9
2007-01-23 07:03:52 51°16.3 2°54.218 77.6 0.3 345 11.1
2007-01-23 07:03:57 51°16.3 2°54.219 77.1 0.1 154 10.9
2007-01-23 07:04:02 51°16.3 2°54.219 77.7 0.1 109 10.9
2007-01-23 07:04:07 51°16.3 2°54.219 77.4 -999 128 10.9
2007-01-23 07:04:12 51°16.3 2°54.219 77.4 0.1 122 10.8
2007-01-23 07:04:17 51°16.3 2°54.219 77.9 0.1 181 11
2007-01-23 07:04:22 51°16.3 2°54.219 77.5 0.2 351 11
2007-01-23 07:04:27 51°16.3 2°54.219 77.6 0.2 148 10.9
2007-01-23 07:04:32 51°16.3 2°54.219 76.9 0.2 357 10.9
2007-01-23 07:04:37 51°16.3 2°54.219 77.4 0.1 73 10.8
2007-01-23 07:04:42 51°16.3 2°54.219 77 -999 218 10.8
2007-01-23 07:04:47 51°16.3 2°54.219 76.9 0.1 159 10.9
2007-01-23 07:04:52 51°16.3 2°54.219 76.6 -999 84 10.9
2007-01-23 07:04:57 51°16.3 2°54.219 76.5 0.1 359 10.9